sensor_id;sensor_type;location;lat;lon;timestamp;P1;durP1;ratioP1;P2;durP2;ratioP2
72569;SDS011;60594;50.204;8.844;2022-07-30T00:00:42;6.72;;;3.70;;
72569;SDS011;60594;50.204;8.844;2022-07-30T00:03:09;5.55;;;2.90;;
72569;SDS011;60594;50.204;8.844;2022-07-30T00:05:36;5.47;;;3.08;;
72569;SDS011;60594;50.204;8.844;2022-07-30T00:08:02;6.72;;;3.38;;
72569;SDS011;60594;50.204;8.844;2022-07-30T00:10:29;5.47;;;3.17;;
72569;SDS011;60594;50.204;8.844;2022-07-30T00:12:56;6.45;;;3.60;;
72569;SDS011;60594;50.204;8.844;2022-07-30T00:15:22;5.72;;;3.63;;
72569;SDS011;60594;50.204;8.844;2022-07-30T00:17:49;6.53;;;3.80;;
72569;SDS011;60594;50.204;8.844;2022-07-30T00:20:16;5.63;;;3.95;;
72569;SDS011;60594;50.204;8.844;2022-07-30T00:22:42;7.80;;;4.30;;
72569;SDS011;60594;50.204;8.844;2022-07-30T00:25:09;7.07;;;4.18;;
72569;SDS011;60594;50.204;8.844;2022-07-30T00:27:35;5.95;;;4.10;;
72569;SDS011;60594;50.204;8.844;2022-07-30T00:30:03;7.78;;;4.82;;
72569;SDS011;60594;50.204;8.844;2022-07-30T00:32:34;6.35;;;4.30;;
72569;SDS011;60594;50.204;8.844;2022-07-30T00:35:02;6.22;;;3.83;;
72569;SDS011;60594;50.204;8.844;2022-07-30T00:37:29;7.82;;;4.22;;
72569;SDS011;60594;50.204;8.844;2022-07-30T00:39:56;6.40;;;4.57;;
72569;SDS011;60594;50.204;8.844;2022-07-30T00:42:22;5.80;;;3.65;;
72569;SDS011;60594;50.204;8.844;2022-07-30T00:44:51;6.20;;;4.22;;
72569;SDS011;60594;50.204;8.844;2022-07-30T00:47:18;6.70;;;4.20;;
72569;SDS011;60594;50.204;8.844;2022-07-30T00:49:45;6.50;;;3.83;;
72569;SDS011;60594;50.204;8.844;2022-07-30T00:52:12;6.47;;;3.85;;
72569;SDS011;60594;50.204;8.844;2022-07-30T00:54:40;5.97;;;4.38;;
72569;SDS011;60594;50.204;8.844;2022-07-30T00:57:06;7.43;;;4.68;;
72569;SDS011;60594;50.204;8.844;2022-07-30T00:59:33;5.40;;;3.70;;
72569;SDS011;60594;50.204;8.844;2022-07-30T01:01:59;5.70;;;4.13;;
72569;SDS011;60594;50.204;8.844;2022-07-30T01:04:27;8.25;;;4.53;;
72569;SDS011;60594;50.204;8.844;2022-07-30T01:06:54;6.07;;;4.32;;
72569;SDS011;60594;50.204;8.844;2022-07-30T01:09:20;5.95;;;3.90;;
72569;SDS011;60594;50.204;8.844;2022-07-30T01:11:47;7.15;;;4.20;;
72569;SDS011;60594;50.204;8.844;2022-07-30T01:14:14;6.70;;;3.85;;
72569;SDS011;60594;50.204;8.844;2022-07-30T01:16:42;6.63;;;4.28;;
72569;SDS011;60594;50.204;8.844;2022-07-30T01:19:42;5.93;;;4.13;;
72569;SDS011;60594;50.204;8.844;2022-07-30T01:24:57;7.38;;;4.18;;
72569;SDS011;60594;50.204;8.844;2022-07-30T01:27:46;6.45;;;4.07;;
72569;SDS011;60594;50.204;8.844;2022-07-30T01:30:17;7.20;;;5.13;;
72569;SDS011;60594;50.204;8.844;2022-07-30T01:32:46;6.63;;;4.18;;
72569;SDS011;60594;50.204;8.844;2022-07-30T01:35:16;7.47;;;4.70;;
72569;SDS011;60594;50.204;8.844;2022-07-30T01:37:44;7.68;;;4.95;;
72569;SDS011;60594;50.204;8.844;2022-07-30T01:40:12;6.55;;;4.20;;
72569;SDS011;60594;50.204;8.844;2022-07-30T01:42:40;8.25;;;4.25;;
72569;SDS011;60594;50.204;8.844;2022-07-30T01:45:10;8.85;;;5.07;;
72569;SDS011;60594;50.204;8.844;2022-07-30T01:47:38;6.45;;;4.00;;
72569;SDS011;60594;50.204;8.844;2022-07-30T01:50:08;6.85;;;4.22;;
72569;SDS011;60594;50.204;8.844;2022-07-30T01:52:40;7.97;;;5.25;;
72569;SDS011;60594;50.204;8.844;2022-07-30T01:55:11;6.43;;;4.53;;
72569;SDS011;60594;50.204;8.844;2022-07-30T01:57:41;6.75;;;4.70;;
72569;SDS011;60594;50.204;8.844;2022-07-30T02:00:10;7.10;;;4.45;;
72569;SDS011;60594;50.204;8.844;2022-07-30T02:02:44;8.77;;;4.60;;
72569;SDS011;60594;50.204;8.844;2022-07-30T02:05:12;7.43;;;4.90;;
72569;SDS011;60594;50.204;8.844;2022-07-30T02:10:36;7.22;;;4.25;;
72569;SDS011;60594;50.204;8.844;2022-07-30T02:13:16;8.95;;;4.60;;
72569;SDS011;60594;50.204;8.844;2022-07-30T02:15:50;6.75;;;4.25;;
72569;SDS011;60594;50.204;8.844;2022-07-30T02:18:39;7.13;;;4.32;;
72569;SDS011;60594;50.204;8.844;2022-07-30T02:21:13;7.90;;;4.45;;
72569;SDS011;60594;50.204;8.844;2022-07-30T02:23:44;7.07;;;5.20;;
72569;SDS011;60594;50.204;8.844;2022-07-30T02:26:13;7.32;;;4.50;;
72569;SDS011;60594;50.204;8.844;2022-07-30T02:28:44;6.45;;;4.22;;
72569;SDS011;60594;50.204;8.844;2022-07-30T02:31:14;7.47;;;4.22;;
72569;SDS011;60594;50.204;8.844;2022-07-30T02:33:47;6.70;;;4.50;;
72569;SDS011;60594;50.204;8.844;2022-07-30T02:36:17;5.68;;;3.97;;
72569;SDS011;60594;50.204;8.844;2022-07-30T02:38:45;6.97;;;4.07;;
72569;SDS011;60594;50.204;8.844;2022-07-30T02:41:16;6.25;;;4.78;;
72569;SDS011;60594;50.204;8.844;2022-07-30T02:43:45;6.22;;;4.35;;
72569;SDS011;60594;50.204;8.844;2022-07-30T02:46:18;6.00;;;4.07;;
72569;SDS011;60594;50.204;8.844;2022-07-30T02:49:11;7.22;;;4.30;;
72569;SDS011;60594;50.204;8.844;2022-07-30T02:51:41;7.47;;;4.10;;
72569;SDS011;60594;50.204;8.844;2022-07-30T02:54:08;5.80;;;4.18;;
72569;SDS011;60594;50.204;8.844;2022-07-30T02:56:35;9.13;;;4.32;;
72569;SDS011;60594;50.204;8.844;2022-07-30T02:59:03;5.85;;;3.85;;
72569;SDS011;60594;50.204;8.844;2022-07-30T03:01:32;6.18;;;4.63;;
72569;SDS011;60594;50.204;8.844;2022-07-30T03:04:00;6.70;;;4.00;;
72569;SDS011;60594;50.204;8.844;2022-07-30T03:06:28;6.40;;;3.90;;
72569;SDS011;60594;50.204;8.844;2022-07-30T03:08:57;6.45;;;3.90;;
72569;SDS011;60594;50.204;8.844;2022-07-30T03:11:27;5.65;;;3.88;;
72569;SDS011;60594;50.204;8.844;2022-07-30T03:13:55;7.90;;;4.22;;
72569;SDS011;60594;50.204;8.844;2022-07-30T03:16:23;5.82;;;3.95;;
72569;SDS011;60594;50.204;8.844;2022-07-30T03:18:52;7.32;;;4.00;;
72569;SDS011;60594;50.204;8.844;2022-07-30T03:21:20;7.05;;;4.32;;
72569;SDS011;60594;50.204;8.844;2022-07-30T03:23:52;6.53;;;4.60;;
72569;SDS011;60594;50.204;8.844;2022-07-30T03:26:21;7.22;;;4.70;;
72569;SDS011;60594;50.204;8.844;2022-07-30T03:28:50;10.10;;;4.63;;
72569;SDS011;60594;50.204;8.844;2022-07-30T03:31:17;7.55;;;4.70;;
72569;SDS011;60594;50.204;8.844;2022-07-30T03:33:45;8.75;;;4.97;;
72569;SDS011;60594;50.204;8.844;2022-07-30T03:36:13;6.75;;;4.80;;
72569;SDS011;60594;50.204;8.844;2022-07-30T03:38:41;6.68;;;4.70;;
72569;SDS011;60594;50.204;8.844;2022-07-30T03:41:09;6.60;;;4.20;;
72569;SDS011;60594;50.204;8.844;2022-07-30T03:43:38;6.20;;;4.25;;
72569;SDS011;60594;50.204;8.844;2022-07-30T03:46:06;5.95;;;4.05;;
72569;SDS011;60594;50.204;8.844;2022-07-30T03:48:39;5.65;;;3.92;;
72569;SDS011;60594;50.204;8.844;2022-07-30T03:51:06;6.72;;;3.83;;
72569;SDS011;60594;50.204;8.844;2022-07-30T03:53:36;6.03;;;4.55;;
72569;SDS011;60594;50.204;8.844;2022-07-30T03:56:25;5.32;;;3.72;;
72569;SDS011;60594;50.204;8.844;2022-07-30T03:59:02;6.35;;;4.30;;
72569;SDS011;60594;50.204;8.844;2022-07-30T04:01:29;7.78;;;3.88;;
72569;SDS011;60594;50.204;8.844;2022-07-30T04:04:07;6.45;;;4.18;;
72569;SDS011;60594;50.204;8.844;2022-07-30T04:06:36;6.35;;;3.78;;
72569;SDS011;60594;50.204;8.844;2022-07-30T04:09:06;6.70;;;3.88;;
72569;SDS011;60594;50.204;8.844;2022-07-30T04:11:34;8.25;;;4.43;;
72569;SDS011;60594;50.204;8.844;2022-07-30T04:14:05;6.82;;;4.50;;
72569;SDS011;60594;50.204;8.844;2022-07-30T04:19:42;6.97;;;4.70;;
72569;SDS011;60594;50.204;8.844;2022-07-30T04:22:14;6.90;;;5.47;;
72569;SDS011;60594;50.204;8.844;2022-07-30T04:24:45;6.75;;;4.43;;
72569;SDS011;60594;50.204;8.844;2022-07-30T04:27:13;7.50;;;4.80;;
72569;SDS011;60594;50.204;8.844;2022-07-30T04:32:08;7.65;;;5.47;;
72569;SDS011;60594;50.204;8.844;2022-07-30T04:34:57;7.75;;;5.60;;
72569;SDS011;60594;50.204;8.844;2022-07-30T04:37:49;8.80;;;5.97;;
72569;SDS011;60594;50.204;8.844;2022-07-30T04:40:16;9.23;;;5.43;;
72569;SDS011;60594;50.204;8.844;2022-07-30T04:42:43;9.30;;;5.75;;
72569;SDS011;60594;50.204;8.844;2022-07-30T04:45:11;8.30;;;5.32;;
72569;SDS011;60594;50.204;8.844;2022-07-30T04:47:58;7.70;;;5.03;;
72569;SDS011;60594;50.204;8.844;2022-07-30T04:50:44;7.13;;;4.70;;
72569;SDS011;60594;50.204;8.844;2022-07-30T04:53:16;6.20;;;4.82;;
72569;SDS011;60594;50.204;8.844;2022-07-30T04:55:50;6.63;;;4.97;;
72569;SDS011;60594;50.204;8.844;2022-07-30T05:00:46;7.78;;;5.00;;
72569;SDS011;60594;50.204;8.844;2022-07-30T05:03:18;7.65;;;5.00;;
72569;SDS011;60594;50.204;8.844;2022-07-30T05:05:50;7.97;;;5.50;;
72569;SDS011;60594;50.204;8.844;2022-07-30T05:08:18;7.40;;;5.03;;
72569;SDS011;60594;50.204;8.844;2022-07-30T05:10:45;7.45;;;5.22;;
72569;SDS011;60594;50.204;8.844;2022-07-30T05:13:13;9.65;;;5.53;;
72569;SDS011;60594;50.204;8.844;2022-07-30T05:15:41;9.02;;;5.82;;
72569;SDS011;60594;50.204;8.844;2022-07-30T05:18:11;8.82;;;5.97;;
72569;SDS011;60594;50.204;8.844;2022-07-30T05:20:41;8.93;;;6.10;;
72569;SDS011;60594;50.204;8.844;2022-07-30T05:23:15;8.70;;;5.93;;
72569;SDS011;60594;50.204;8.844;2022-07-30T05:25:47;9.50;;;6.10;;
72569;SDS011;60594;50.204;8.844;2022-07-30T05:28:17;10.05;;;6.32;;
72569;SDS011;60594;50.204;8.844;2022-07-30T05:30:47;8.43;;;6.45;;
72569;SDS011;60594;50.204;8.844;2022-07-30T05:33:17;8.52;;;6.05;;
72569;SDS011;60594;50.204;8.844;2022-07-30T05:35:44;10.25;;;6.70;;
72569;SDS011;60594;50.204;8.844;2022-07-30T05:38:10;9.13;;;7.10;;
72569;SDS011;60594;50.204;8.844;2022-07-30T05:40:53;11.90;;;7.20;;
72569;SDS011;60594;50.204;8.844;2022-07-30T05:43:51;9.63;;;6.72;;
72569;SDS011;60594;50.204;8.844;2022-07-30T05:46:19;10.57;;;7.10;;
72569;SDS011;60594;50.204;8.844;2022-07-30T05:48:46;10.43;;;7.18;;
72569;SDS011;60594;50.204;8.844;2022-07-30T05:51:14;9.38;;;6.75;;
72569;SDS011;60594;50.204;8.844;2022-07-30T05:53:40;10.23;;;7.35;;
72569;SDS011;60594;50.204;8.844;2022-07-30T05:56:09;10.70;;;6.93;;
72569;SDS011;60594;50.204;8.844;2022-07-30T05:58:52;10.48;;;6.97;;
72569;SDS011;60594;50.204;8.844;2022-07-30T06:01:30;9.13;;;6.32;;
72569;SDS011;60594;50.204;8.844;2022-07-30T06:04:02;9.68;;;6.97;;
72569;SDS011;60594;50.204;8.844;2022-07-30T06:06:40;9.55;;;6.97;;
72569;SDS011;60594;50.204;8.844;2022-07-30T06:09:07;10.85;;;6.82;;
72569;SDS011;60594;50.204;8.844;2022-07-30T06:11:34;10.77;;;7.20;;
72569;SDS011;60594;50.204;8.844;2022-07-30T06:14:00;10.00;;;6.72;;
72569;SDS011;60594;50.204;8.844;2022-07-30T06:16:27;10.00;;;7.20;;
72569;SDS011;60594;50.204;8.844;2022-07-30T06:18:55;12.20;;;7.93;;
72569;SDS011;60594;50.204;8.844;2022-07-30T06:21:42;8.70;;;6.03;;
72569;SDS011;60594;50.204;8.844;2022-07-30T06:24:11;10.95;;;7.05;;
72569;SDS011;60594;50.204;8.844;2022-07-30T06:27:04;9.02;;;5.85;;
72569;SDS011;60594;50.204;8.844;2022-07-30T06:29:30;9.85;;;6.13;;
72569;SDS011;60594;50.204;8.844;2022-07-30T06:31:57;9.23;;;6.22;;
72569;SDS011;60594;50.204;8.844;2022-07-30T06:34:24;7.90;;;6.55;;
72569;SDS011;60594;50.204;8.844;2022-07-30T06:36:52;9.68;;;6.30;;
72569;SDS011;60594;50.204;8.844;2022-07-30T06:39:19;8.13;;;5.18;;
72569;SDS011;60594;50.204;8.844;2022-07-30T06:41:58;8.70;;;5.20;;
72569;SDS011;60594;50.204;8.844;2022-07-30T06:44:42;7.65;;;5.25;;
72569;SDS011;60594;50.204;8.844;2022-07-30T06:47:09;8.13;;;6.07;;
72569;SDS011;60594;50.204;8.844;2022-07-30T06:49:38;10.63;;;5.30;;
72569;SDS011;60594;50.204;8.844;2022-07-30T06:52:08;7.72;;;5.00;;
72569;SDS011;60594;50.204;8.844;2022-07-30T06:54:35;6.95;;;5.07;;
72569;SDS011;60594;50.204;8.844;2022-07-30T06:57:07;8.10;;;5.95;;
72569;SDS011;60594;50.204;8.844;2022-07-30T06:59:34;7.55;;;5.32;;
72569;SDS011;60594;50.204;8.844;2022-07-30T07:02:12;8.00;;;5.57;;
72569;SDS011;60594;50.204;8.844;2022-07-30T07:05:02;10.02;;;6.65;;
72569;SDS011;60594;50.204;8.844;2022-07-30T07:07:31;8.50;;;5.22;;
72569;SDS011;60594;50.204;8.844;2022-07-30T07:09:57;11.52;;;6.32;;
72569;SDS011;60594;50.204;8.844;2022-07-30T07:12:49;10.32;;;6.13;;
72569;SDS011;60594;50.204;8.844;2022-07-30T07:15:19;8.13;;;5.72;;
72569;SDS011;60594;50.204;8.844;2022-07-30T07:17:48;8.43;;;5.35;;
72569;SDS011;60594;50.204;8.844;2022-07-30T07:20:32;8.10;;;5.43;;
72569;SDS011;60594;50.204;8.844;2022-07-30T07:23:03;8.93;;;6.22;;
72569;SDS011;60594;50.204;8.844;2022-07-30T07:25:31;9.85;;;6.43;;
72569;SDS011;60594;50.204;8.844;2022-07-30T07:27:58;8.60;;;6.45;;
72569;SDS011;60594;50.204;8.844;2022-07-30T07:30:25;11.02;;;6.25;;
72569;SDS011;60594;50.204;8.844;2022-07-30T07:32:51;8.88;;;5.47;;
72569;SDS011;60594;50.204;8.844;2022-07-30T07:35:32;8.88;;;5.75;;
72569;SDS011;60594;50.204;8.844;2022-07-30T07:37:58;9.10;;;6.22;;
72569;SDS011;60594;50.204;8.844;2022-07-30T07:40:27;9.63;;;7.88;;
72569;SDS011;60594;50.204;8.844;2022-07-30T07:42:55;10.45;;;6.90;;
72569;SDS011;60594;50.204;8.844;2022-07-30T07:45:22;8.48;;;5.90;;
72569;SDS011;60594;50.204;8.844;2022-07-30T07:47:54;9.10;;;6.40;;
72569;SDS011;60594;50.204;8.844;2022-07-30T07:50:43;11.05;;;5.68;;
72569;SDS011;60594;50.204;8.844;2022-07-30T07:53:17;14.65;;;6.18;;
72569;SDS011;60594;50.204;8.844;2022-07-30T07:55:44;11.90;;;6.97;;
72569;SDS011;60594;50.204;8.844;2022-07-30T07:58:11;9.57;;;6.20;;
72569;SDS011;60594;50.204;8.844;2022-07-30T08:00:39;9.15;;;6.32;;
72569;SDS011;60594;50.204;8.844;2022-07-30T08:03:06;8.85;;;6.20;;
72569;SDS011;60594;50.204;8.844;2022-07-30T08:05:33;8.55;;;6.00;;
72569;SDS011;60594;50.204;8.844;2022-07-30T08:08:10;9.32;;;5.53;;
72569;SDS011;60594;50.204;8.844;2022-07-30T08:11:00;8.05;;;5.70;;
72569;SDS011;60594;50.204;8.844;2022-07-30T08:13:45;11.18;;;5.97;;
72569;SDS011;60594;50.204;8.844;2022-07-30T08:16:30;9.73;;;6.40;;
72569;SDS011;60594;50.204;8.844;2022-07-30T08:19:16;14.07;;;5.68;;
72569;SDS011;60594;50.204;8.844;2022-07-30T08:21:49;9.43;;;5.40;;
72569;SDS011;60594;50.204;8.844;2022-07-30T08:24:18;9.07;;;5.28;;
72569;SDS011;60594;50.204;8.844;2022-07-30T08:26:44;8.07;;;6.00;;
72569;SDS011;60594;50.204;8.844;2022-07-30T08:29:12;9.52;;;5.38;;
72569;SDS011;60594;50.204;8.844;2022-07-30T08:31:38;8.18;;;5.75;;
72569;SDS011;60594;50.204;8.844;2022-07-30T08:34:05;8.68;;;6.03;;
72569;SDS011;60594;50.204;8.844;2022-07-30T08:36:31;8.75;;;5.88;;
72569;SDS011;60594;50.204;8.844;2022-07-30T08:38:58;8.93;;;5.30;;
72569;SDS011;60594;50.204;8.844;2022-07-30T08:41:24;11.43;;;6.25;;
72569;SDS011;60594;50.204;8.844;2022-07-30T08:43:51;9.38;;;5.30;;
72569;SDS011;60594;50.204;8.844;2022-07-30T08:46:20;9.10;;;6.00;;
72569;SDS011;60594;50.204;8.844;2022-07-30T08:49:10;11.70;;;5.22;;
72569;SDS011;60594;50.204;8.844;2022-07-30T08:51:39;12.18;;;5.13;;
72569;SDS011;60594;50.204;8.844;2022-07-30T08:54:26;10.93;;;5.50;;
72569;SDS011;60594;50.204;8.844;2022-07-30T08:56:55;8.70;;;5.00;;
72569;SDS011;60594;50.204;8.844;2022-07-30T08:59:24;7.22;;;4.82;;
72569;SDS011;60594;50.204;8.844;2022-07-30T09:01:52;8.25;;;4.63;;
72569;SDS011;60594;50.204;8.844;2022-07-30T09:04:18;9.45;;;4.88;;
72569;SDS011;60594;50.204;8.844;2022-07-30T09:09:13;7.70;;;4.40;;
72569;SDS011;60594;50.204;8.844;2022-07-30T09:11:43;7.95;;;4.10;;
72569;SDS011;60594;50.204;8.844;2022-07-30T09:14:10;5.90;;;3.88;;
72569;SDS011;60594;50.204;8.844;2022-07-30T09:16:39;7.45;;;4.32;;
72569;SDS011;60594;50.204;8.844;2022-07-30T09:19:25;7.20;;;3.80;;
72569;SDS011;60594;50.204;8.844;2022-07-30T09:21:55;8.50;;;3.88;;
72569;SDS011;60594;50.204;8.844;2022-07-30T09:24:49;8.80;;;3.92;;
72569;SDS011;60594;50.204;8.844;2022-07-30T09:27:44;6.75;;;3.78;;
72569;SDS011;60594;50.204;8.844;2022-07-30T09:30:54;7.65;;;4.10;;
72569;SDS011;60594;50.204;8.844;2022-07-30T09:33:53;8.38;;;3.95;;
72569;SDS011;60594;50.204;8.844;2022-07-30T09:36:38;6.22;;;3.97;;
72569;SDS011;60594;50.204;8.844;2022-07-30T09:42:18;7.43;;;4.20;;
72569;SDS011;60594;50.204;8.844;2022-07-30T09:44:47;7.35;;;3.88;;
72569;SDS011;60594;50.204;8.844;2022-07-30T09:47:30;7.10;;;4.47;;
72569;SDS011;60594;50.204;8.844;2022-07-30T09:50:02;6.90;;;4.00;;
72569;SDS011;60594;50.204;8.844;2022-07-30T09:52:31;8.00;;;3.70;;
72569;SDS011;60594;50.204;8.844;2022-07-30T09:54:57;7.82;;;4.20;;
72569;SDS011;60594;50.204;8.844;2022-07-30T09:57:27;6.68;;;4.07;;
72569;SDS011;60594;50.204;8.844;2022-07-30T10:00:14;7.80;;;4.28;;
72569;SDS011;60594;50.204;8.844;2022-07-30T10:02:47;6.38;;;4.18;;
72569;SDS011;60594;50.204;8.844;2022-07-30T10:05:34;6.32;;;3.60;;
72569;SDS011;60594;50.204;8.844;2022-07-30T10:08:01;6.28;;;3.45;;
72569;SDS011;60594;50.204;8.844;2022-07-30T10:10:29;6.50;;;4.00;;
72569;SDS011;60594;50.204;8.844;2022-07-30T10:13:01;8.82;;;3.95;;
72569;SDS011;60594;50.204;8.844;2022-07-30T10:15:29;7.22;;;4.30;;
72569;SDS011;60594;50.204;8.844;2022-07-30T10:17:59;7.45;;;3.80;;
72569;SDS011;60594;50.204;8.844;2022-07-30T10:20:49;6.28;;;3.90;;
72569;SDS011;60594;50.204;8.844;2022-07-30T10:23:49;5.45;;;3.55;;
72569;SDS011;60594;50.204;8.844;2022-07-30T10:26:36;5.68;;;3.95;;
72569;SDS011;60594;50.204;8.844;2022-07-30T10:29:23;7.97;;;3.55;;
72569;SDS011;60594;50.204;8.844;2022-07-30T10:31:52;5.88;;;3.92;;
72569;SDS011;60594;50.204;8.844;2022-07-30T10:34:19;5.78;;;3.42;;
72569;SDS011;60594;50.204;8.844;2022-07-30T10:36:47;7.68;;;4.28;;
72569;SDS011;60594;50.204;8.844;2022-07-30T10:39:17;7.68;;;4.40;;
72569;SDS011;60594;50.204;8.844;2022-07-30T10:47:49;7.13;;;4.03;;
72569;SDS011;60594;50.204;8.844;2022-07-30T10:50:19;9.52;;;4.70;;
72569;SDS011;60594;50.204;8.844;2022-07-30T10:52:54;7.65;;;3.92;;
72569;SDS011;60594;50.204;8.844;2022-07-30T10:55:23;5.50;;;4.05;;
72569;SDS011;60594;50.204;8.844;2022-07-30T11:03:11;7.65;;;4.13;;
72569;SDS011;60594;50.204;8.844;2022-07-30T11:05:41;7.07;;;4.43;;
72569;SDS011;60594;50.204;8.844;2022-07-30T11:10:57;5.03;;;4.13;;
72569;SDS011;60594;50.204;8.844;2022-07-30T11:13:47;8.55;;;3.92;;
72569;SDS011;60594;50.204;8.844;2022-07-30T11:16:56;7.35;;;3.90;;
72569;SDS011;60594;50.204;8.844;2022-07-30T11:19:18;5.35;;;3.20;;
72569;SDS011;60594;50.204;8.844;2022-07-30T11:24:51;6.90;;;4.10;;
72569;SDS011;60594;50.204;8.844;2022-07-30T11:27:39;6.68;;;3.80;;
72569;SDS011;60594;50.204;8.844;2022-07-30T11:36:03;6.13;;;4.13;;
72569;SDS011;60594;50.204;8.844;2022-07-30T11:38:50;6.35;;;4.70;;
72569;SDS011;60594;50.204;8.844;2022-07-30T11:41:18;8.57;;;4.28;;
72569;SDS011;60594;50.204;8.844;2022-07-30T11:43:45;5.88;;;3.67;;
72569;SDS011;60594;50.204;8.844;2022-07-30T11:48:41;7.47;;;3.78;;
72569;SDS011;60594;50.204;8.844;2022-07-30T11:51:20;6.20;;;3.90;;
72569;SDS011;60594;50.204;8.844;2022-07-30T11:54:00;6.40;;;4.22;;
72569;SDS011;60594;50.204;8.844;2022-07-30T11:56:31;6.40;;;4.07;;
72569;SDS011;60594;50.204;8.844;2022-07-30T11:59:02;6.82;;;4.28;;
72569;SDS011;60594;50.204;8.844;2022-07-30T12:04:02;7.07;;;3.70;;
72569;SDS011;60594;50.204;8.844;2022-07-30T12:06:30;5.63;;;3.83;;
72569;SDS011;60594;50.204;8.844;2022-07-30T12:08:57;4.80;;;3.67;;
72569;SDS011;60594;50.204;8.844;2022-07-30T12:14:01;7.07;;;3.67;;
72569;SDS011;60594;50.204;8.844;2022-07-30T12:16:28;6.03;;;3.60;;
72569;SDS011;60594;50.204;8.844;2022-07-30T12:19:05;4.85;;;3.35;;
72569;SDS011;60594;50.204;8.844;2022-07-30T12:21:32;7.65;;;3.90;;
72569;SDS011;60594;50.204;8.844;2022-07-30T12:24:00;6.97;;;3.60;;
72569;SDS011;60594;50.204;8.844;2022-07-30T12:26:30;6.90;;;3.60;;
72569;SDS011;60594;50.204;8.844;2022-07-30T12:29:00;7.07;;;4.00;;
72569;SDS011;60594;50.204;8.844;2022-07-30T12:31:30;6.20;;;3.60;;
72569;SDS011;60594;50.204;8.844;2022-07-30T12:33:58;4.18;;;2.92;;
72569;SDS011;60594;50.204;8.844;2022-07-30T12:36:30;4.97;;;3.00;;
72569;SDS011;60594;50.204;8.844;2022-07-30T12:38:59;4.68;;;4.18;;
72569;SDS011;60594;50.204;8.844;2022-07-30T12:41:43;6.10;;;4.32;;
72569;SDS011;60594;50.204;8.844;2022-07-30T12:46:59;5.60;;;3.60;;
72569;SDS011;60594;50.204;8.844;2022-07-30T12:49:28;6.18;;;3.60;;
72569;SDS011;60594;50.204;8.844;2022-07-30T12:51:56;5.00;;;3.58;;
72569;SDS011;60594;50.204;8.844;2022-07-30T12:54:24;5.13;;;3.63;;
72569;SDS011;60594;50.204;8.844;2022-07-30T12:56:54;6.55;;;3.50;;
72569;SDS011;60594;50.204;8.844;2022-07-30T12:59:25;4.68;;;3.60;;
72569;SDS011;60594;50.204;8.844;2022-07-30T13:01:53;7.70;;;3.63;;
72569;SDS011;60594;50.204;8.844;2022-07-30T13:04:25;5.35;;;4.15;;
72569;SDS011;60594;50.204;8.844;2022-07-30T13:07:02;5.45;;;3.63;;
72569;SDS011;60594;50.204;8.844;2022-07-30T13:09:29;5.90;;;3.80;;
72569;SDS011;60594;50.204;8.844;2022-07-30T13:11:56;6.32;;;3.70;;
72569;SDS011;60594;50.204;8.844;2022-07-30T13:14:22;7.75;;;4.05;;
72569;SDS011;60594;50.204;8.844;2022-07-30T13:16:49;8.07;;;4.20;;
72569;SDS011;60594;50.204;8.844;2022-07-30T13:19:21;4.43;;;3.40;;
72569;SDS011;60594;50.204;8.844;2022-07-30T13:21:47;4.38;;;3.85;;
72569;SDS011;60594;50.204;8.844;2022-07-30T13:24:14;5.03;;;3.40;;
72569;SDS011;60594;50.204;8.844;2022-07-30T13:26:40;4.95;;;3.88;;
72569;SDS011;60594;50.204;8.844;2022-07-30T13:29:07;5.10;;;3.58;;
72569;SDS011;60594;50.204;8.844;2022-07-30T13:31:35;5.85;;;3.72;;
72569;SDS011;60594;50.204;8.844;2022-07-30T13:34:02;5.07;;;3.65;;
72569;SDS011;60594;50.204;8.844;2022-07-30T13:36:29;6.40;;;3.85;;
72569;SDS011;60594;50.204;8.844;2022-07-30T13:38:56;8.05;;;3.78;;
72569;SDS011;60594;50.204;8.844;2022-07-30T13:41:22;5.22;;;3.80;;
72569;SDS011;60594;50.204;8.844;2022-07-30T13:43:49;5.35;;;3.58;;
72569;SDS011;60594;50.204;8.844;2022-07-30T13:46:17;5.55;;;3.60;;
72569;SDS011;60594;50.204;8.844;2022-07-30T13:48:44;6.07;;;3.30;;
72569;SDS011;60594;50.204;8.844;2022-07-30T13:51:10;7.20;;;3.72;;
72569;SDS011;60594;50.204;8.844;2022-07-30T13:53:37;4.93;;;3.15;;
72569;SDS011;60594;50.204;8.844;2022-07-30T13:56:03;5.50;;;3.40;;
72569;SDS011;60594;50.204;8.844;2022-07-30T13:58:36;6.43;;;3.50;;
72569;SDS011;60594;50.204;8.844;2022-07-30T14:01:03;5.03;;;2.97;;
72569;SDS011;60594;50.204;8.844;2022-07-30T14:03:31;5.55;;;3.20;;
72569;SDS011;60594;50.204;8.844;2022-07-30T14:05:58;6.15;;;2.85;;
72569;SDS011;60594;50.204;8.844;2022-07-30T14:08:26;4.70;;;2.80;;
72569;SDS011;60594;50.204;8.844;2022-07-30T14:10:56;3.78;;;2.63;;
72569;SDS011;60594;50.204;8.844;2022-07-30T14:13:23;4.68;;;2.90;;
72569;SDS011;60594;50.204;8.844;2022-07-30T14:15:52;5.72;;;2.50;;
72569;SDS011;60594;50.204;8.844;2022-07-30T14:18:18;5.15;;;2.88;;
72569;SDS011;60594;50.204;8.844;2022-07-30T14:20:45;5.10;;;3.10;;
72569;SDS011;60594;50.204;8.844;2022-07-30T14:25:41;5.72;;;2.50;;
72569;SDS011;60594;50.204;8.844;2022-07-30T14:28:11;4.75;;;2.50;;
72569;SDS011;60594;50.204;8.844;2022-07-30T14:30:41;5.55;;;2.60;;
72569;SDS011;60594;50.204;8.844;2022-07-30T14:33:08;4.50;;;2.55;;
72569;SDS011;60594;50.204;8.844;2022-07-30T14:35:34;5.18;;;2.30;;
72569;SDS011;60594;50.204;8.844;2022-07-30T14:38:04;5.10;;;2.50;;
72569;SDS011;60594;50.204;8.844;2022-07-30T14:40:31;5.30;;;2.53;;
72569;SDS011;60594;50.204;8.844;2022-07-30T14:42:57;5.32;;;2.35;;
72569;SDS011;60594;50.204;8.844;2022-07-30T14:45:25;4.53;;;2.30;;
72569;SDS011;60594;50.204;8.844;2022-07-30T14:47:52;5.57;;;2.33;;
72569;SDS011;60594;50.204;8.844;2022-07-30T14:50:18;3.78;;;2.40;;
72569;SDS011;60594;50.204;8.844;2022-07-30T14:52:45;5.35;;;2.30;;
72569;SDS011;60594;50.204;8.844;2022-07-30T14:55:12;4.93;;;2.25;;
72569;SDS011;60594;50.204;8.844;2022-07-30T14:57:39;4.63;;;2.20;;
72569;SDS011;60594;50.204;8.844;2022-07-30T15:00:06;3.92;;;2.22;;
72569;SDS011;60594;50.204;8.844;2022-07-30T15:02:36;4.63;;;2.50;;
72569;SDS011;60594;50.204;8.844;2022-07-30T15:05:04;4.35;;;2.45;;
72569;SDS011;60594;50.204;8.844;2022-07-30T15:07:31;4.05;;;2.00;;
72569;SDS011;60594;50.204;8.844;2022-07-30T15:10:04;4.05;;;2.10;;
72569;SDS011;60594;50.204;8.844;2022-07-30T15:12:33;3.58;;;1.85;;
72569;SDS011;60594;50.204;8.844;2022-07-30T15:15:00;4.15;;;2.20;;
72569;SDS011;60594;50.204;8.844;2022-07-30T15:17:28;3.17;;;1.90;;
72569;SDS011;60594;50.204;8.844;2022-07-30T15:19:55;4.63;;;2.00;;
72569;SDS011;60594;50.204;8.844;2022-07-30T15:22:23;4.68;;;2.00;;
72569;SDS011;60594;50.204;8.844;2022-07-30T15:24:50;4.47;;;2.15;;
72569;SDS011;60594;50.204;8.844;2022-07-30T15:27:16;4.03;;;2.55;;
72569;SDS011;60594;50.204;8.844;2022-07-30T15:29:43;4.95;;;2.10;;
72569;SDS011;60594;50.204;8.844;2022-07-30T15:32:12;4.07;;;2.00;;
72569;SDS011;60594;50.204;8.844;2022-07-30T15:34:41;4.57;;;1.90;;
72569;SDS011;60594;50.204;8.844;2022-07-30T15:37:08;4.95;;;2.10;;
72569;SDS011;60594;50.204;8.844;2022-07-30T15:42:08;3.70;;;2.03;;
72569;SDS011;60594;50.204;8.844;2022-07-30T15:47:02;5.05;;;2.30;;
72569;SDS011;60594;50.204;8.844;2022-07-30T15:49:29;3.90;;;2.42;;
72569;SDS011;60594;50.204;8.844;2022-07-30T15:51:59;4.22;;;2.15;;
72569;SDS011;60594;50.204;8.844;2022-07-30T15:54:27;4.72;;;2.20;;
72569;SDS011;60594;50.204;8.844;2022-07-30T15:56:54;4.47;;;2.50;;
72569;SDS011;60594;50.204;8.844;2022-07-30T15:59:23;5.35;;;3.42;;
72569;SDS011;60594;50.204;8.844;2022-07-30T16:01:49;5.07;;;2.60;;
72569;SDS011;60594;50.204;8.844;2022-07-30T16:04:16;3.95;;;2.10;;
72569;SDS011;60594;50.204;8.844;2022-07-30T16:06:43;5.70;;;2.35;;
72569;SDS011;60594;50.204;8.844;2022-07-30T16:11:36;4.03;;;2.40;;